sensor_id;sensor_type;location;lat;lon;timestamp;pressure;altitude;pressure_sealevel;temperature;humidity
76285;BME280;71676;50.998;7.098;2023-12-29T00:00:02;100537.41;;;8.89;55.54
76285;BME280;71676;50.998;7.098;2023-12-29T00:02:29;100524.63;;;8.92;55.19
76285;BME280;71676;50.998;7.098;2023-12-29T00:04:55;100513.47;;;8.94;55.31
76285;BME280;71676;50.998;7.098;2023-12-29T00:07:22;100521.28;;;9.03;54.91
76285;BME280;71676;50.998;7.098;2023-12-29T00:09:49;100518.78;;;9.08;55.08
76285;BME280;71676;50.998;7.098;2023-12-29T00:12:15;100516.06;;;8.96;55.20
76285;BME280;71676;50.998;7.098;2023-12-29T00:14:42;100515.88;;;8.79;55.96
76285;BME280;71676;50.998;7.098;2023-12-29T00:17:10;100505.72;;;8.90;55.75
76285;BME280;71676;50.998;7.098;2023-12-29T00:19:36;100511.81;;;8.99;55.41
76285;BME280;71676;50.998;7.098;2023-12-29T00:22:03;100486.84;;;8.89;55.05
76285;BME280;71676;50.998;7.098;2023-12-29T00:24:30;100512.72;;;9.01;55.41
76285;BME280;71676;50.998;7.098;2023-12-29T00:26:57;100513.53;;;8.99;55.36
76285;BME280;71676;50.998;7.098;2023-12-29T00:29:25;100509.28;;;9.02;55.10
76285;BME280;71676;50.998;7.098;2023-12-29T00:31:53;100493.78;;;8.93;55.18
76285;BME280;71676;50.998;7.098;2023-12-29T00:34:21;100522.94;;;8.98;55.53
76285;BME280;71676;50.998;7.098;2023-12-29T00:36:48;100512.72;;;9.04;55.28
76285;BME280;71676;50.998;7.098;2023-12-29T00:39:15;100501.59;;;9.05;55.04
76285;BME280;71676;50.998;7.098;2023-12-29T00:41:41;100505.81;;;8.99;55.31
76285;BME280;71676;50.998;7.098;2023-12-29T00:44:08;100505.03;;;9.07;55.00
76285;BME280;71676;50.998;7.098;2023-12-29T00:46:35;100506.81;;;9.13;54.92
76285;BME280;71676;50.998;7.098;2023-12-29T00:49:01;100495.72;;;9.15;54.82
76285;BME280;71676;50.998;7.098;2023-12-29T00:51:29;100487.91;;;9.09;55.20
76285;BME280;71676;50.998;7.098;2023-12-29T00:53:56;100493.88;;;9.07;55.05
76285;BME280;71676;50.998;7.098;2023-12-29T00:56:23;100481.84;;;9.01;55.46
76285;BME280;71676;50.998;7.098;2023-12-29T00:58:50;100480.16;;;9.06;55.17
76285;BME280;71676;50.998;7.098;2023-12-29T01:01:16;100484.34;;;8.95;55.28
76285;BME280;71676;50.998;7.098;2023-12-29T01:03:43;100475.81;;;8.99;55.32
76285;BME280;71676;50.998;7.098;2023-12-29T01:06:09;100466.44;;;9.03;54.86
76285;BME280;71676;50.998;7.098;2023-12-29T01:08:37;100462.19;;;9.09;54.97
76285;BME280;71676;50.998;7.098;2023-12-29T01:11:04;100464.59;;;8.90;55.80
76285;BME280;71676;50.998;7.098;2023-12-29T01:13:31;100467.22;;;8.96;55.34
76285;BME280;71676;50.998;7.098;2023-12-29T01:15:58;100460.38;;;8.99;55.12
76285;BME280;71676;50.998;7.098;2023-12-29T01:18:24;100457.88;;;9.07;55.13
76285;BME280;71676;50.998;7.098;2023-12-29T01:20:51;100449.28;;;9.05;55.15
76285;BME280;71676;50.998;7.098;2023-12-29T01:23:18;100450.13;;;9.01;55.61
76285;BME280;71676;50.998;7.098;2023-12-29T01:25:46;100438.84;;;8.85;55.76
76285;BME280;71676;50.998;7.098;2023-12-29T01:28:12;100435.44;;;8.92;55.66
76285;BME280;71676;50.998;7.098;2023-12-29T01:30:39;100436.34;;;8.94;55.64
76285;BME280;71676;50.998;7.098;2023-12-29T01:33:05;100439.88;;;9.08;55.12
76285;BME280;71676;50.998;7.098;2023-12-29T01:35:32;100441.50;;;8.99;55.63
76285;BME280;71676;50.998;7.098;2023-12-29T01:37:58;100432.97;;;9.00;55.50
76285;BME280;71676;50.998;7.098;2023-12-29T01:40:26;100427.00;;;9.07;55.34
76285;BME280;71676;50.998;7.098;2023-12-29T01:42:54;100438.16;;;9.04;55.40
76285;BME280;71676;50.998;7.098;2023-12-29T01:45:22;100436.53;;;9.12;55.20
76285;BME280;71676;50.998;7.098;2023-12-29T01:47:49;100436.47;;;9.09;55.33
76285;BME280;71676;50.998;7.098;2023-12-29T01:50:17;100442.47;;;9.10;54.87
76285;BME280;71676;50.998;7.098;2023-12-29T01:52:45;100438.19;;;9.09;55.32
76285;BME280;71676;50.998;7.098;2023-12-29T01:55:17;100427.84;;;9.03;55.09
76285;BME280;71676;50.998;7.098;2023-12-29T01:57:45;100437.28;;;9.07;55.53
76285;BME280;71676;50.998;7.098;2023-12-29T02:00:15;100446.75;;;9.09;55.24
76285;BME280;71676;50.998;7.098;2023-12-29T02:02:43;100443.28;;;9.04;55.53
76285;BME280;71676;50.998;7.098;2023-12-29T02:05:13;100448.50;;;9.10;55.12
76285;BME280;71676;50.998;7.098;2023-12-29T02:07:41;100422.56;;;8.89;55.10
76285;BME280;71676;50.998;7.098;2023-12-29T02:10:08;100433.97;;;9.12;54.96
76285;BME280;71676;50.998;7.098;2023-12-29T02:12:35;100431.38;;;9.11;55.32
76285;BME280;71676;50.998;7.098;2023-12-29T02:15:03;100420.22;;;9.10;55.14
76285;BME280;71676;50.998;7.098;2023-12-29T02:17:37;100426.25;;;9.15;55.13
76285;BME280;71676;50.998;7.098;2023-12-29T02:20:05;100432.22;;;9.14;55.33
76285;BME280;71676;50.998;7.098;2023-12-29T02:22:33;100419.28;;;9.07;55.25
76285;BME280;71676;50.998;7.098;2023-12-29T02:25:01;100411.56;;;9.05;55.28
76285;BME280;71676;50.998;7.098;2023-12-29T02:27:35;100410.66;;;8.99;55.80
76285;BME280;71676;50.998;7.098;2023-12-29T02:30:09;100399.56;;;9.04;55.54
76285;BME280;71676;50.998;7.098;2023-12-29T02:32:38;100398.72;;;9.10;55.37
76285;BME280;71676;50.998;7.098;2023-12-29T02:35:07;100405.53;;;9.03;55.45
76285;BME280;71676;50.998;7.098;2023-12-29T02:37:37;100397.03;;;9.09;55.62
76285;BME280;71676;50.998;7.098;2023-12-29T02:40:06;100387.53;;;9.05;55.23
76285;BME280;71676;50.998;7.098;2023-12-29T02:42:33;100382.38;;;9.03;55.57
76285;BME280;71676;50.998;7.098;2023-12-29T02:45:00;100380.69;;;9.04;55.33
76285;BME280;71676;50.998;7.098;2023-12-29T02:47:27;100397.81;;;9.03;55.58
76285;BME280;71676;50.998;7.098;2023-12-29T02:49:53;100389.28;;;9.07;55.79
76285;BME280;71676;50.998;7.098;2023-12-29T02:52:20;100389.34;;;9.12;55.25
76285;BME280;71676;50.998;7.098;2023-12-29T02:54:47;100386.81;;;9.16;55.40
76285;BME280;71676;50.998;7.098;2023-12-29T02:57:15;100393.59;;;9.10;55.36
76285;BME280;71676;50.998;7.098;2023-12-29T02:59:42;100397.97;;;9.17;55.30
76285;BME280;71676;50.998;7.098;2023-12-29T03:02:08;100390.09;;;9.03;56.03
76285;BME280;71676;50.998;7.098;2023-12-29T03:04:35;100391.00;;;9.08;55.53
76285;BME280;71676;50.998;7.098;2023-12-29T03:07:01;100388.56;;;9.17;55.34
76285;BME280;71676;50.998;7.098;2023-12-29T03:09:28;100390.22;;;9.12;55.27
76285;BME280;71676;50.998;7.098;2023-12-29T03:11:55;100389.28;;;9.07;56.02
76285;BME280;71676;50.998;7.098;2023-12-29T03:14:23;100385.81;;;9.01;56.13
76285;BME280;71676;50.998;7.098;2023-12-29T03:16:49;100386.88;;;9.24;55.25
76285;BME280;71676;50.998;7.098;2023-12-29T03:19:16;100368.78;;;9.12;55.49
76285;BME280;71676;50.998;7.098;2023-12-29T03:21:43;100397.06;;;9.10;55.66
76285;BME280;71676;50.998;7.098;2023-12-29T03:24:09;100397.75;;;8.91;56.08
76285;BME280;71676;50.998;7.098;2023-12-29T03:26:36;100394.31;;;8.94;55.99
76285;BME280;71676;50.998;7.098;2023-12-29T03:29:02;100385.78;;;8.93;55.94
76285;BME280;71676;50.998;7.098;2023-12-29T03:31:30;100384.94;;;8.99;56.03
76285;BME280;71676;50.998;7.098;2023-12-29T03:33:57;100389.41;;;9.19;55.57
76285;BME280;71676;50.998;7.098;2023-12-29T03:36:23;100386.03;;;9.27;55.48
76285;BME280;71676;50.998;7.098;2023-12-29T03:38:50;100382.56;;;9.25;55.42
76285;BME280;71676;50.998;7.098;2023-12-29T03:41:17;100389.47;;;9.27;55.02
76285;BME280;71676;50.998;7.098;2023-12-29T03:43:44;100379.06;;;9.13;55.69
76285;BME280;71676;50.998;7.098;2023-12-29T03:46:17;100363.63;;;9.10;56.08
76285;BME280;71676;50.998;7.098;2023-12-29T03:48:45;100379.97;;;9.15;56.11
76285;BME280;71676;50.998;7.098;2023-12-29T03:51:12;100371.28;;;9.03;56.28
76285;BME280;71676;50.998;7.098;2023-12-29T03:53:39;100372.22;;;9.14;56.23
76285;BME280;71676;50.998;7.098;2023-12-29T03:56:07;100407.47;;;9.26;55.88
76285;BME280;71676;50.998;7.098;2023-12-29T03:58:33;100389.38;;;9.16;56.38
76285;BME280;71676;50.998;7.098;2023-12-29T04:01:00;100384.22;;;9.13;56.36
76285;BME280;71676;50.998;7.098;2023-12-29T04:03:27;100376.59;;;9.26;56.19
76285;BME280;71676;50.998;7.098;2023-12-29T04:05:55;100370.50;;;9.14;56.61
76285;BME280;71676;50.998;7.098;2023-12-29T04:08:22;100368.00;;;9.25;56.14
76285;BME280;71676;50.998;7.098;2023-12-29T04:10:49;100373.16;;;9.27;56.31
76285;BME280;71676;50.998;7.098;2023-12-29T04:13:15;100365.50;;;9.36;56.06
76285;BME280;71676;50.998;7.098;2023-12-29T04:15:42;100353.47;;;9.30;56.32
76285;BME280;71676;50.998;7.098;2023-12-29T04:18:09;100365.50;;;9.36;56.11
76285;BME280;71676;50.998;7.098;2023-12-29T04:20:35;100357.72;;;9.28;55.94
76285;BME280;71676;50.998;7.098;2023-12-29T04:23:05;100353.47;;;9.32;55.81
76285;BME280;71676;50.998;7.098;2023-12-29T04:25:32;100368.00;;;9.24;56.39
76285;BME280;71676;50.998;7.098;2023-12-29T04:27:59;100344.88;;;9.31;56.05
76285;BME280;71676;50.998;7.098;2023-12-29T04:30:26;100344.88;;;9.33;56.10
76285;BME280;71676;50.998;7.098;2023-12-29T04:32:52;100352.53;;;9.16;56.79
76285;BME280;71676;50.998;7.098;2023-12-29T04:35:19;100336.28;;;9.31;56.38
76285;BME280;71676;50.998;7.098;2023-12-29T04:37:46;100355.13;;;9.24;56.61
76285;BME280;71676;50.998;7.098;2023-12-29T04:40:14;100356.09;;;9.45;55.83
76285;BME280;71676;50.998;7.098;2023-12-29T04:42:40;100354.41;;;9.49;55.70
76285;BME280;71676;50.998;7.098;2023-12-29T04:45:07;100362.13;;;9.47;55.97
76285;BME280;71676;50.998;7.098;2023-12-29T04:47:35;100358.75;;;9.53;55.58
76285;BME280;71676;50.998;7.098;2023-12-29T04:50:02;100369.88;;;9.55;55.61
76285;BME280;71676;50.998;7.098;2023-12-29T04:52:29;100377.59;;;9.55;55.68
76285;BME280;71676;50.998;7.098;2023-12-29T04:54:56;100383.56;;;9.45;56.16
76285;BME280;71676;50.998;7.098;2023-12-29T04:57:24;100382.72;;;9.50;55.77
76285;BME280;71676;50.998;7.098;2023-12-29T04:59:50;100378.47;;;9.51;55.69
76285;BME280;71676;50.998;7.098;2023-12-29T05:02:17;100384.34;;;9.33;56.49
76285;BME280;71676;50.998;7.098;2023-12-29T05:04:45;100391.34;;;9.55;55.96
76285;BME280;71676;50.998;7.098;2023-12-29T05:07:11;100363.78;;;9.35;55.96
76285;BME280;71676;50.998;7.098;2023-12-29T05:09:38;100386.03;;;9.27;56.96
76285;BME280;71676;50.998;7.098;2023-12-29T05:12:05;100398.97;;;9.40;56.54
76285;BME280;71676;50.998;7.098;2023-12-29T05:14:33;100390.38;;;9.37;56.50
76285;BME280;71676;50.998;7.098;2023-12-29T05:16:59;100391.31;;;9.48;56.16
76285;BME280;71676;50.998;7.098;2023-12-29T05:19:26;100399.94;;;9.53;56.31
76285;BME280;71676;50.998;7.098;2023-12-29T05:21:52;100393.91;;;9.52;56.40
76285;BME280;71676;50.998;7.098;2023-12-29T05:24:19;100399.03;;;9.45;56.45
76285;BME280;71676;50.998;7.098;2023-12-29T05:26:46;100392.16;;;9.47;56.79
76285;BME280;71676;50.998;7.098;2023-12-29T05:29:12;100396.47;;;9.48;56.44
76285;BME280;71676;50.998;7.098;2023-12-29T05:31:40;100385.28;;;9.43;56.70
76285;BME280;71676;50.998;7.098;2023-12-29T05:34:07;100382.72;;;9.46;56.65
76285;BME280;71676;50.998;7.098;2023-12-29T05:36:35;100382.72;;;9.47;56.44
76285;BME280;71676;50.998;7.098;2023-12-29T05:39:04;100380.91;;;9.34;56.44
76285;BME280;71676;50.998;7.098;2023-12-29T05:41:30;100384.41;;;9.44;56.69
76285;BME280;71676;50.998;7.098;2023-12-29T05:43:57;100387.88;;;9.52;56.20
76285;BME280;71676;50.998;7.098;2023-12-29T05:46:26;100394.75;;;9.50;56.26
76285;BME280;71676;50.998;7.098;2023-12-29T05:48:54;100392.13;;;9.45;56.36
76285;BME280;71676;50.998;7.098;2023-12-29T05:51:21;100393.00;;;9.46;56.07
76285;BME280;71676;50.998;7.098;2023-12-29T05:53:48;100406.72;;;9.42;55.89
76285;BME280;71676;50.998;7.098;2023-12-29T05:56:15;100394.69;;;9.44;56.01
76285;BME280;71676;50.998;7.098;2023-12-29T05:58:41;100397.28;;;9.45;55.54
76285;BME280;71676;50.998;7.098;2023-12-29T06:01:08;100394.53;;;9.16;56.65
76285;BME280;71676;50.998;7.098;2023-12-29T06:03:35;100381.81;;;9.38;56.56
76285;BME280;71676;50.998;7.098;2023-12-29T06:06:03;100387.72;;;9.22;56.54
76285;BME280;71676;50.998;7.098;2023-12-29T06:08:30;100382.69;;;9.40;55.63
76285;BME280;71676;50.998;7.098;2023-12-29T06:10:57;100398.88;;;9.24;56.17
76285;BME280;71676;50.998;7.098;2023-12-29T06:13:24;100396.28;;;9.21;56.04
76285;BME280;71676;50.998;7.098;2023-12-29T06:15:50;100397.22;;;9.35;56.02
76285;BME280;71676;50.998;7.098;2023-12-29T06:18:17;100415.22;;;9.29;56.01
76285;BME280;71676;50.998;7.098;2023-12-29T06:20:44;100393.75;;;9.27;56.04
76285;BME280;71676;50.998;7.098;2023-12-29T06:23:13;100398.09;;;9.34;56.03
76285;BME280;71676;50.998;7.098;2023-12-29T06:25:42;100385.16;;;9.26;56.32
76285;BME280;71676;50.998;7.098;2023-12-29T06:28:08;100394.69;;;9.39;55.70
76285;BME280;71676;50.998;7.098;2023-12-29T06:30:35;100397.25;;;9.38;55.75
76285;BME280;71676;50.998;7.098;2023-12-29T06:33:02;100393.81;;;9.39;55.58
76285;BME280;71676;50.998;7.098;2023-12-29T06:35:29;100402.34;;;9.30;55.69
76285;BME280;71676;50.998;7.098;2023-12-29T06:37:55;100395.53;;;9.34;55.63
76285;BME280;71676;50.998;7.098;2023-12-29T06:40:23;100398.13;;;9.40;55.68
76285;BME280;71676;50.998;7.098;2023-12-29T06:42:50;100391.16;;;9.21;55.95
76285;BME280;71676;50.998;7.098;2023-12-29T06:45:17;100395.56;;;9.40;55.45
76285;BME280;71676;50.998;7.098;2023-12-29T06:47:44;100402.41;;;9.39;55.70
76285;BME280;71676;50.998;7.098;2023-12-29T06:50:10;100397.22;;;9.33;55.75
76285;BME280;71676;50.998;7.098;2023-12-29T06:52:38;100390.41;;;9.38;55.80
76285;BME280;71676;50.998;7.098;2023-12-29T06:55:06;100384.41;;;9.42;55.56
76285;BME280;71676;50.998;7.098;2023-12-29T06:57:34;100389.53;;;9.39;55.61
76285;BME280;71676;50.998;7.098;2023-12-29T07:00:01;100384.47;;;9.51;55.42
76285;BME280;71676;50.998;7.098;2023-12-29T07:02:28;100378.34;;;9.33;55.91
76285;BME280;71676;50.998;7.098;2023-12-29T07:04:54;100368.16;;;9.48;54.92
76285;BME280;71676;50.998;7.098;2023-12-29T07:07:21;100368.16;;;9.54;54.62
76285;BME280;71676;50.998;7.098;2023-12-29T07:09:48;100350.13;;;9.48;55.03
76285;BME280;71676;50.998;7.098;2023-12-29T07:12:14;100358.69;;;9.45;55.19
76285;BME280;71676;50.998;7.098;2023-12-29T07:14:43;100356.19;;;9.54;54.84
76285;BME280;71676;50.998;7.098;2023-12-29T07:17:10;100358.75;;;9.53;54.85
76285;BME280;71676;50.998;7.098;2023-12-29T07:19:37;100360.44;;;9.52;54.90
76285;BME280;71676;50.998;7.098;2023-12-29T07:22:03;100347.59;;;9.55;54.78
76285;BME280;71676;50.998;7.098;2023-12-29T07:24:31;100358.72;;;9.50;55.04
76285;BME280;71676;50.998;7.098;2023-12-29T07:26:58;100351.84;;;9.53;54.74
76285;BME280;71676;50.998;7.098;2023-12-29T07:29:25;100345.81;;;9.44;55.06
76285;BME280;71676;50.998;7.098;2023-12-29T07:31:53;100318.25;;;9.23;55.33
76285;BME280;71676;50.998;7.098;2023-12-29T07:34:20;100320.81;;;9.20;55.04
76285;BME280;71676;50.998;7.098;2023-12-29T07:36:46;100347.47;;;9.31;55.54
76285;BME280;71676;50.998;7.098;2023-12-29T07:39:13;100343.22;;;9.42;55.61
76285;BME280;71676;50.998;7.098;2023-12-29T07:41:40;100336.38;;;9.40;55.64
76285;BME280;71676;50.998;7.098;2023-12-29T07:44:07;100324.31;;;9.33;56.04
76285;BME280;71676;50.998;7.098;2023-12-29T07:46:34;100332.09;;;9.42;56.17
76285;BME280;71676;50.998;7.098;2023-12-29T07:49:02;100343.25;;;9.48;55.76
76285;BME280;71676;50.998;7.098;2023-12-29T07:51:29;100337.25;;;9.48;56.46
76285;BME280;71676;50.998;7.098;2023-12-29T07:53:57;100335.53;;;9.47;56.30
76285;BME280;71676;50.998;7.098;2023-12-29T07:56:24;100324.41;;;9.48;56.24
76285;BME280;71676;50.998;7.098;2023-12-29T07:58:50;100331.28;;;9.55;56.14
76285;BME280;71676;50.998;7.098;2023-12-29T08:01:17;100339.88;;;9.57;56.50
76285;BME280;71676;50.998;7.098;2023-12-29T08:03:43;100339.81;;;9.45;57.58
76285;BME280;71676;50.998;7.098;2023-12-29T08:06:12;100331.22;;;9.43;58.34
76285;BME280;71676;50.998;7.098;2023-12-29T08:08:38;100336.34;;;9.34;59.38
76285;BME280;71676;50.998;7.098;2023-12-29T08:11:05;100347.44;;;9.24;59.17
76285;BME280;71676;50.998;7.098;2023-12-29T08:13:32;100361.00;;;9.09;61.72
76285;BME280;71676;50.998;7.098;2023-12-29T08:15:58;100357.63;;;9.14;60.28
76285;BME280;71676;50.998;7.098;2023-12-29T08:18:25;100373.97;;;9.23;60.93
76285;BME280;71676;50.998;7.098;2023-12-29T08:20:53;100378.28;;;9.21;61.39
76285;BME280;71676;50.998;7.098;2023-12-29T08:23:21;100380.84;;;9.22;61.58
76285;BME280;71676;50.998;7.098;2023-12-29T08:25:47;100380.88;;;9.24;62.66
76285;BME280;71676;50.998;7.098;2023-12-29T08:28:14;100388.41;;;9.04;62.51
76285;BME280;71676;50.998;7.098;2023-12-29T08:30:42;100378.97;;;9.01;63.04
76285;BME280;71676;50.998;7.098;2023-12-29T08:33:11;100375.38;;;8.81;64.61
76285;BME280;71676;50.998;7.098;2023-12-29T08:35:39;100365.09;;;8.83;63.60
76285;BME280;71676;50.998;7.098;2023-12-29T08:38:05;100378.88;;;8.92;63.87
76285;BME280;71676;50.998;7.098;2023-12-29T08:40:33;100382.34;;;8.94;64.51
76285;BME280;71676;50.998;7.098;2023-12-29T08:43:01;100384.03;;;8.95;63.67
76285;BME280;71676;50.998;7.098;2023-12-29T08:45:28;100390.06;;;8.97;63.53
76285;BME280;71676;50.998;7.098;2023-12-29T08:47:55;100382.38;;;9.03;63.87
76285;BME280;71676;50.998;7.098;2023-12-29T08:50:21;100375.53;;;9.02;63.57
76285;BME280;71676;50.998;7.098;2023-12-29T08:52:48;100385.81;;;9.02;63.41
76285;BME280;71676;50.998;7.098;2023-12-29T08:55:14;100384.16;;;9.07;63.75
76285;BME280;71676;50.998;7.098;2023-12-29T08:57:42;100393.56;;;9.05;64.15
76285;BME280;71676;50.998;7.098;2023-12-29T09:00:10;100384.94;;;8.99;63.73
76285;BME280;71676;50.998;7.098;2023-12-29T09:02:36;100390.91;;;8.93;65.07
76285;BME280;71676;50.998;7.098;2023-12-29T09:05:03;100383.19;;;8.93;64.65
76285;BME280;71676;50.998;7.098;2023-12-29T09:07:32;100376.34;;;8.97;64.70
76285;BME280;71676;50.998;7.098;2023-12-29T09:09:59;100382.38;;;9.02;64.43
76285;BME280;71676;50.998;7.098;2023-12-29T09:12:27;100378.97;;;9.00;64.61
76285;BME280;71676;50.998;7.098;2023-12-29T09:14:55;100374.66;;;8.99;63.96
76285;BME280;71676;50.998;7.098;2023-12-29T09:17:21;100383.19;;;8.93;65.08
76285;BME280;71676;50.998;7.098;2023-12-29T09:19:48;100381.50;;;8.98;64.16
76285;BME280;71676;50.998;7.098;2023-12-29T09:22:15;100382.34;;;8.94;64.95
76285;BME280;71676;50.998;7.098;2023-12-29T09:24:41;100390.09;;;9.00;64.70
76285;BME280;71676;50.998;7.098;2023-12-29T09:27:08;100407.16;;;8.91;65.60
76285;BME280;71676;50.998;7.098;2023-12-29T09:29:36;100399.44;;;8.92;64.96
76285;BME280;71676;50.998;7.098;2023-12-29T09:32:05;100407.91;;;8.81;65.84
76285;BME280;71676;50.998;7.098;2023-12-29T09:34:31;100407.06;;;8.79;66.09
76285;BME280;71676;50.998;7.098;2023-12-29T09:36:58;100410.44;;;8.73;66.33
76285;BME280;71676;50.998;7.098;2023-12-29T09:39:25;100409.50;;;8.65;66.53
76285;BME280;71676;50.998;7.098;2023-12-29T09:41:52;100412.22;;;8.82;66.02
76285;BME280;71676;50.998;7.098;2023-12-29T09:44:21;100402.75;;;8.76;66.19
76285;BME280;71676;50.998;7.098;2023-12-29T09:46:49;100395.88;;;8.72;65.83
76285;BME280;71676;50.998;7.098;2023-12-29T09:49:18;100405.41;;;8.82;66.26
76285;BME280;71676;50.998;7.098;2023-12-29T09:51:45;100402.78;;;8.81;65.97
76285;BME280;71676;50.998;7.098;2023-12-29T09:54:12;100413.97;;;8.86;65.30
76285;BME280;71676;50.998;7.098;2023-12-29T09:56:40;100395.91;;;8.78;67.21
76285;BME280;71676;50.998;7.098;2023-12-29T09:59:09;100387.22;;;8.61;66.57
76285;BME280;71676;50.998;7.098;2023-12-29T10:01:37;100417.38;;;8.83;66.25
76285;BME280;71676;50.998;7.098;2023-12-29T10:04:04;100403.56;;;8.68;67.71
76285;BME280;71676;50.998;7.098;2023-12-29T10:06:36;100401.81;;;8.68;67.05
76285;BME280;71676;50.998;7.098;2023-12-29T10:09:06;100409.63;;;8.77;66.24
76285;BME280;71676;50.998;7.098;2023-12-29T10:11:35;100403.63;;;8.77;66.80
76285;BME280;71676;50.998;7.098;2023-12-29T10:14:09;100404.53;;;8.85;67.57
76285;BME280;71676;50.998;7.098;2023-12-29T10:16:42;100394.97;;;8.69;68.86
76285;BME280;71676;50.998;7.098;2023-12-29T10:19:18;100404.50;;;8.77;67.01
76285;BME280;71676;50.998;7.098;2023-12-29T10:21:55;100384.72;;;8.73;67.61
76285;BME280;71676;50.998;7.098;2023-12-29T10:24:24;100383.03;;;8.75;67.07
76285;BME280;71676;50.998;7.098;2023-12-29T10:26:51;100390.72;;;8.72;67.50
76285;BME280;71676;50.998;7.098;2023-12-29T10:29:19;100385.56;;;8.69;68.29
76285;BME280;71676;50.998;7.098;2023-12-29T10:31:46;100391.66;;;8.79;67.11
76285;BME280;71676;50.998;7.098;2023-12-29T10:34:20;100388.00;;;8.57;68.05
76285;BME280;71676;50.998;7.098;2023-12-29T10:36:55;100394.91;;;8.60;68.33
76285;BME280;71676;50.998;7.098;2023-12-29T10:39:21;100397.63;;;8.79;66.77
76285;BME280;71676;50.998;7.098;2023-12-29T10:41:49;100395.84;;;8.71;67.56
76285;BME280;71676;50.998;7.098;2023-12-29T10:44:16;100386.47;;;8.76;66.53
76285;BME280;71676;50.998;7.098;2023-12-29T10:46:42;100392.56;;;8.84;66.22
76285;BME280;71676;50.998;7.098;2023-12-29T10:49:10;100401.00;;;8.72;67.08
76285;BME280;71676;50.998;7.098;2023-12-29T10:51:37;100361.38;;;8.51;67.49
76285;BME280;71676;50.998;7.098;2023-12-29T10:54:05;100397.63;;;8.78;67.29
76285;BME280;71676;50.998;7.098;2023-12-29T10:56:32;100395.13;;;8.85;66.70
76285;BME280;71676;50.998;7.098;2023-12-29T10:59:00;100390.81;;;8.83;67.20
76285;BME280;71676;50.998;7.098;2023-12-29T11:01:28;100383.13;;;8.86;66.48
76285;BME280;71676;50.998;7.098;2023-12-29T11:03:58;100386.59;;;8.92;66.43
76285;BME280;71676;50.998;7.098;2023-12-29T11:06:27;100393.41;;;8.89;66.39
76285;BME280;71676;50.998;7.098;2023-12-29T11:08:55;100378.06;;;8.96;65.81
76285;BME280;71676;50.998;7.098;2023-12-29T11:11:23;100387.44;;;8.90;66.27
76285;BME280;71676;50.998;7.098;2023-12-29T11:13:51;100393.38;;;8.81;66.80
76285;BME280;71676;50.998;7.098;2023-12-29T11:16:19;100382.28;;;8.88;66.85
76285;BME280;71676;50.998;7.098;2023-12-29T11:18:49;100379.72;;;8.88;66.03
76285;BME280;71676;50.998;7.098;2023-12-29T11:21:16;100381.53;;;9.01;65.09
76285;BME280;71676;50.998;7.098;2023-12-29T11:23:44;100394.41;;;9.00;65.36
76285;BME280;71676;50.998;7.098;2023-12-29T11:26:11;100329.78;;;8.61;65.19
76285;BME280;71676;50.998;7.098;2023-12-29T11:28:40;100379.88;;;9.09;65.00
76285;BME280;71676;50.998;7.098;2023-12-29T11:31:08;100375.63;;;9.13;65.01
76285;BME280;71676;50.998;7.098;2023-12-29T11:33:38;100354.97;;;9.01;64.79
76285;BME280;71676;50.998;7.098;2023-12-29T11:36:11;100380.84;;;9.17;64.93
76285;BME280;71676;50.998;7.098;2023-12-29T11:38:49;100376.50;;;9.10;65.09
76285;BME280;71676;50.998;7.098;2023-12-29T11:41:21;100375.72;;;9.21;64.84
76285;BME280;71676;50.998;7.098;2023-12-29T11:44:00;100351.59;;;9.08;64.89
76285;BME280;71676;50.998;7.098;2023-12-29T11:46:34;100368.91;;;9.29;64.76
76285;BME280;71676;50.998;7.098;2023-12-29T11:49:00;100369.69;;;9.18;64.19
76285;BME280;71676;50.998;7.098;2023-12-29T11:51:31;100364.56;;;9.23;65.56
76285;BME280;71676;50.998;7.098;2023-12-29T11:53:58;100358.59;;;9.29;65.07
76285;BME280;71676;50.998;7.098;2023-12-29T11:56:30;100349.22;;;9.34;65.02
76285;BME280;71676;50.998;7.098;2023-12-29T11:59:14;100342.41;;;9.46;63.86
76285;BME280;71676;50.998;7.098;2023-12-29T12:01:42;100344.13;;;9.49;63.35
76285;BME280;71676;50.998;7.098;2023-12-29T12:04:38;100348.34;;;9.36;64.17
76285;BME280;71676;50.998;7.098;2023-12-29T12:07:07;100333.72;;;9.28;63.67
76285;BME280;71676;50.998;7.098;2023-12-29T12:09:34;100327.84;;;9.50;63.17
76285;BME280;71676;50.998;7.098;2023-12-29T12:12:01;100347.50;;;9.40;63.42
76285;BME280;71676;50.998;7.098;2023-12-29T12:14:50;100297.53;;;9.05;64.20
76285;BME280;71676;50.998;7.098;2023-12-29T12:17:30;100344.06;;;9.38;64.09
76285;BME280;71676;50.998;7.098;2023-12-29T12:19:59;100337.25;;;9.46;63.28
76285;BME280;71676;50.998;7.098;2023-12-29T12:22:29;100329.56;;;9.54;63.06
76285;BME280;71676;50.998;7.098;2023-12-29T12:24:56;100338.97;;;9.44;63.26
76285;BME280;71676;50.998;7.098;2023-12-29T12:27:24;100336.38;;;9.44;62.50
76285;BME280;71676;50.998;7.098;2023-12-29T12:29:54;100340.59;;;9.32;62.58
76285;BME280;71676;50.998;7.098;2023-12-29T12:32:25;100339.75;;;9.34;62.33
76285;BME280;71676;50.998;7.098;2023-12-29T12:34:52;100344.84;;;9.24;63.32
76285;BME280;71676;50.998;7.098;2023-12-29T12:37:19;100332.88;;;9.29;63.18
76285;BME280;71676;50.998;7.098;2023-12-29T12:39:46;100331.22;;;9.40;63.44
76285;BME280;71676;50.998;7.098;2023-12-29T12:42:13;100319.16;;;9.33;64.18
76285;BME280;71676;50.998;7.098;2023-12-29T12:44:42;100319.25;;;9.48;63.21
76285;BME280;71676;50.998;7.098;2023-12-29T12:47:18;100308.97;;;9.49;62.58
76285;BME280;71676;50.998;7.098;2023-12-29T12:49:49;100290.94;;;9.52;62.21
76285;BME280;71676;50.998;7.098;2023-12-29T12:52:16;100303.00;;;9.59;61.70
76285;BME280;71676;50.998;7.098;2023-12-29T12:54:43;100303.84;;;9.63;61.64
76285;BME280;71676;50.998;7.098;2023-12-29T12:57:10;100316.72;;;9.60;61.95
76285;BME280;71676;50.998;7.098;2023-12-29T12:59:37;100308.94;;;9.45;61.65
76285;BME280;71676;50.998;7.098;2023-12-29T13:02:04;100303.03;;;9.67;61.47